Wetterdaten: Woche 03.03.03 - 09.03.03 (KW10)
Datum Zeit Temperatur Luftfeuchte Luftdruck Regenmenge Wind Richtung Taupunkt Windchill
03.03.2003 00:00 4.1 C 91 % 1016.9 hPa 0.6 l/m 17.6 km/h (3 Bft) W 2.7 C 1.1 C
03.03.2003 01:00 3.8 C 89 % 1017.0 hPa 0.6 l/m 27.0 km/h (4 Bft) W-NW 2.2 C -1.2 C
03.03.2003 02:00 3.3 C 93 % 1017.1 hPa 0.3 l/m 15.3 km/h (3 Bft) W-NW 2.3 C -0.2 C
03.03.2003 03:00 3.2 C 93 % 1017.9 hPa 0.3 l/m 13.4 km/h (3 Bft) W-NW 2.2 C -0.1 C
03.03.2003 04:00 2.9 C 94 % 1017.9 hPa 0.0 l/m 10.8 km/h (2 Bft) W 2.0 C 0.4 C
03.03.2003 05:00 2.8 C 94 % 1019.0 hPa 0.0 l/m 14.3 km/h (3 Bft) W 1.9 C -0.8 C
03.03.2003 06:00 2.4 C 95 % 1019.0 hPa 0.3 l/m 4.3 km/h (1 Bft) SO 1.7 C 1.4 C
03.03.2003 07:00 2.2 C 94 % 1019.1 hPa 0.0 l/m 11.1 km/h (2 Bft) SO 1.4 C -0.9 C
03.03.2003 08:00 2.6 C 93 % 1020.0 hPa 0.0 l/m 12.2 km/h (2 Bft) SO 1.6 C -0.6 C
03.03.2003 09:00 3.0 C 91 % 1020.4 hPa 0.0 l/m 3.9 km/h (1 Bft) SO 1.7 C 2.2 C
03.03.2003 10:00 3.9 C 83 % 1020.3 hPa 0.0 l/m 6.4 km/h (2 Bft) W-NW 1.2 C 2.3 C
03.03.2003 11:00 4.7 C 75 % 1021.0 hPa 0.0 l/m 11.5 km/h (2 Bft) W-NW 0.7 C 2.1 C
03.03.2003 12:00 5.3 C 69 % 1021.0 hPa 0.0 l/m 24.2 km/h (4 Bft) NW 0.1 C 1.0 C
03.03.2003 13:00 5.7 C 65 % 1021.0 hPa 0.0 l/m 23.2 km/h (4 Bft) W-NW -0.4 C 1.6 C
03.03.2003 14:00 6.0 C 63 % 1021.0 hPa 0.0 l/m 17.6 km/h (3 Bft) W-NW -0.5 C 2.6 C
03.03.2003 15:00 6.7 C 61 % 1021.0 hPa 0.0 l/m 9.9 km/h (2 Bft) W-NW -0.4 C 4.8 C
03.03.2003 16:00 6.3 C 62 % 1021.0 hPa 0.0 l/m 4.5 km/h (1 Bft) W-NW -0.4 C 5.4 C
03.03.2003 17:00 5.7 C 64 % 1021.0 hPa 0.0 l/m 0.1 km/h (0 Bft) N -0.5 C 5.7 C
03.03.2003 18:00 3.6 C 76 % 1021.8 hPa 0.0 l/m 2.3 km/h (1 Bft) O-NO -0.3 C 3.2 C
03.03.2003 19:00 1.7 C 87 % 1022.2 hPa 0.0 l/m 0.9 km/h (0 Bft) O-SO -0.2 C 1.4 C
03.03.2003 20:00 0.9 C 91 % 1022.9 hPa 0.0 l/m 1.3 km/h (1 Bft) O-SO -0.3 C 0.9 C
03.03.2003 21:00 0.3 C 94 % 1023.1 hPa 0.0 l/m 1.3 km/h (1 Bft) O-SO -0.6 C 0.0 C
03.03.2003 22:00 -0.5 C 95 % 1023.1 hPa 0.0 l/m 0.0 km/h (0 Bft) N -1.2 C -0.5 C
03.03.2003 23:00 -0.7 C 96 % 1023.1 hPa 0.0 l/m 2.7 km/h (1 Bft) O-SO -1.3 C -1.4 C
04.03.2003 00:00 -1.2 C 97 % 1023.1 hPa 0.0 l/m 3.7 km/h (1 Bft) O-SO -1.7 C -1.9 C
04.03.2003 01:00 -1.4 C 98 % 1023.1 hPa 0.0 l/m 0.5 km/h (0 Bft) O-SO -1.7 C -1.4 C
04.03.2003 02:00 -0.5 C 100 % 1023.1 hPa 0.0 l/m 0.0 km/h (0 Bft) N -0.6 C -0.5 C
04.03.2003 03:00 0.1 C 100 % 1023.1 hPa 0.0 l/m 0.2 km/h (0 Bft) N 0.1 C 0.1 C
04.03.2003 04:00 0.0 C 100 % 1023.1 hPa 0.0 l/m 0.9 km/h (0 Bft) SO 0.0 C -0.3 C
04.03.2003 05:00 -0.1 C 100 % 1023.1 hPa 0.0 l/m 1.5 km/h (1 Bft) O-SO -0.1 C -0.6 C
04.03.2003 06:00 -0.3 C 100 % 1023.7 hPa 0.0 l/m 7.7 km/h (2 Bft) O-SO -0.3 C -2.7 C
04.03.2003 07:00 -0.3 C 100 % 1024.1 hPa 0.0 l/m 0.8 km/h (0 Bft) O-SO -0.3 C -0.3 C
04.03.2003 08:00 -0.2 C 100 % 1025.0 hPa 0.0 l/m 0.5 km/h (0 Bft) N -0.2 C -0.2 C
04.03.2003 09:00 0.3 C 100 % 1025.2 hPa 0.0 l/m 0.0 km/h (0 Bft) N 0.3 C 0.3 C
04.03.2003 10:00 1.6 C 90 % 1025.2 hPa 0.0 l/m 1.1 km/h (1 Bft) O-SO 0.1 C 1.3 C
04.03.2003 11:00 3.3 C 77 % 1025.2 hPa 0.0 l/m 6.4 km/h (2 Bft) SO -0.5 C 1.6 C
04.03.2003 12:00 5.4 C 65 % 1025.2 hPa 0.0 l/m 4.2 km/h (1 Bft) SO -0.7 C 4.7 C
04.03.2003 13:00 6.8 C 61 % 1024.1 hPa 0.0 l/m 4.7 km/h (1 Bft) SO -0.1 C 5.9 C
04.03.2003 14:00 7.6 C 60 % 1023.6 hPa 0.0 l/m 3.8 km/h (1 Bft) O-SO 0.4 C 7.0 C
04.03.2003 15:00 8.5 C 56 % 1023.1 hPa 0.0 l/m 2.2 km/h (1 Bft) W-NW 0.4 C 8.3 C
04.03.2003 16:00 8.7 C 53 % 1023.1 hPa 0.0 l/m 0.8 km/h (0 Bft) W-SW -0.5 C 8.6 C
04.03.2003 17:00 7.9 C 55 % 1023.8 hPa 0.0 l/m 0.0 km/h (0 Bft) N -0.5 C 7.9 C
04.03.2003 18:00 6.3 C 65 % 1024.1 hPa 0.0 l/m 1.0 km/h (0 Bft) S-SO 0.3 C 6.1 C
04.03.2003 19:00 5.3 C 71 % 1024.1 hPa 0.0 l/m 0.0 km/h (0 Bft) N 0.5 C 5.3 C
04.03.2003 20:00 4.4 C 78 % 1024.1 hPa 0.0 l/m 0.0 km/h (0 Bft) N 0.9 C 4.4 C
04.03.2003 21:00 4.2 C 82 % 1024.1 hPa 0.0 l/m 0.0 km/h (0 Bft) N 1.4 C 4.2 C
04.03.2003 22:00 4.2 C 80 % 1024.1 hPa 0.0 l/m 0.0 km/h (0 Bft) N 1.1 C 4.2 C
04.03.2003 23:00 4.1 C 82 % 1024.1 hPa 0.0 l/m 0.0 km/h (0 Bft) N 1.2 C 4.1 C
05.03.2003 00:00 3.7 C 86 % 1024.1 hPa 0.0 l/m 0.0 km/h (0 Bft) N 1.5 C 3.7 C
05.03.2003 01:00 3.3 C 88 % 1024.1 hPa 0.0 l/m 0.0 km/h (0 Bft) N 1.4 C 3.3 C
05.03.2003 02:00 3.0 C 91 % 1024.1 hPa 0.0 l/m 0.0 km/h (0 Bft) N 1.7 C 3.0 C
05.03.2003 03:00 2.3 C 92 % 1023.8 hPa 0.0 l/m 0.0 km/h (0 Bft) N 1.1 C 2.3 C
05.03.2003 04:00 2.5 C 93 % 1023.8 hPa 0.0 l/m 0.0 km/h (0 Bft) N 1.5 C 2.5 C
05.03.2003 05:00 2.2 C 92 % 1023.6 hPa 0.0 l/m 0.0 km/h (0 Bft) N 1.0 C 2.2 C
05.03.2003 06:00 1.2 C 94 % 1023.1 hPa 0.0 l/m 0.1 km/h (0 Bft) O-SO 0.4 C 1.2 C
05.03.2003 07:00 1.1 C 97 % 1023.1 hPa 0.0 l/m 1.3 km/h (1 Bft) O-SO 0.7 C 1.1 C
05.03.2003 08:00 2.0 C 97 % 1023.1 hPa 0.0 l/m 0.0 km/h (0 Bft) N 1.6 C 2.0 C
05.03.2003 09:00 3.6 C 88 % 1023.1 hPa 0.0 l/m 0.1 km/h (0 Bft) N 1.8 C 3.6 C
05.03.2003 10:00 6.2 C 71 % 1022.1 hPa 0.0 l/m 0.9 km/h (0 Bft) W-NW 1.3 C 6.1 C
05.03.2003 11:00 9.2 C 55 % 1021.5 hPa 0.0 l/m 3.0 km/h (1 Bft) W-NW 0.7 C 8.8 C
05.03.2003 12:00 11.5 C 47 % 1020.9 hPa 0.0 l/m 2.5 km/h (1 Bft) W-NW 0.5 C 11.5 C
05.03.2003 13:00 13.5 C 46 % 1019.8 hPa 0.0 l/m 3.7 km/h (1 Bft) W-NW 2.0 C 13.5 C
05.03.2003 14:00 14.8 C 45 % 1019.0 hPa 0.0 l/m 0.8 km/h (0 Bft) W 2.8 C 14.8 C
05.03.2003 15:00 15.7 C 41 % 1017.9 hPa 0.0 l/m 3.0 km/h (1 Bft) O-SO 2.5 C 15.7 C
05.03.2003 16:00 15.2 C 39 % 1017.3 hPa 0.0 l/m 5.4 km/h (1 Bft) O-SO 1.4 C 15.2 C
05.03.2003 17:00 13.4 C 45 % 1016.9 hPa 0.0 l/m 7.8 km/h (2 Bft) O-SO 1.6 C 13.4 C
05.03.2003 18:00 11.2 C 50 % 1016.9 hPa 0.0 l/m 8.4 km/h (2 Bft) O-SO 1.0 C 11.2 C
05.03.2003 19:00 7.7 C 67 % 1016.9 hPa 0.0 l/m 1.2 km/h (1 Bft) O-SO 2.0 C 7.6 C
05.03.2003 20:00 5.6 C 79 % 1016.9 hPa 0.0 l/m 1.3 km/h (1 Bft) O-SO 2.2 C 5.6 C
05.03.2003 21:00 4.5 C 81 % 1016.9 hPa 0.0 l/m 0.5 km/h (0 Bft) N 1.6 C 4.5 C
05.03.2003 22:00 3.4 C 89 % 1016.9 hPa 0.0 l/m 1.3 km/h (1 Bft) O-SO 1.7 C 3.4 C
05.03.2003 23:00 2.6 C 90 % 1016.3 hPa 0.0 l/m 0.0 km/h (0 Bft) N 1.2 C 2.6 C
06.03.2003 00:00 2.0 C 91 % 1015.8 hPa 0.0 l/m 0.8 km/h (0 Bft) O-SO 0.7 C 2.0 C
06.03.2003 01:00 1.2 C 94 % 1015.8 hPa 0.0 l/m 0.8 km/h (0 Bft) O-SO 0.3 C 1.2 C
06.03.2003 02:00 1.1 C 95 % 1015.8 hPa 0.0 l/m 0.4 km/h (0 Bft) O-SO 0.4 C 1.1 C
06.03.2003 03:00 1.0 C 95 % 1015.8 hPa 0.0 l/m 0.4 km/h (0 Bft) O-SO 0.3 C 1.0 C
06.03.2003 04:00 0.7 C 96 % 1014.8 hPa 0.0 l/m 0.7 km/h (0 Bft) O-SO 0.2 C 0.7 C
06.03.2003 05:00 0.3 C 97 % 1014.8 hPa 0.0 l/m 1.1 km/h (1 Bft) O-SO -0.1 C -0.0 C
06.03.2003 06:00 0.2 C 97 % 1014.8 hPa 0.0 l/m 0.2 km/h (0 Bft) O-SO -0.2 C 0.2 C
06.03.2003 07:00 0.3 C 98 % 1014.8 hPa 0.0 l/m 2.9 km/h (1 Bft) O-SO -0.0 C -0.5 C
06.03.2003 08:00 1.5 C 98 % 1014.8 hPa 0.0 l/m 0.0 km/h (0 Bft) N 1.2 C 1.5 C
06.03.2003 09:00 2.8 C 91 % 1014.8 hPa 0.0 l/m 0.0 km/h (0 Bft) N 1.5 C 2.8 C
06.03.2003 10:00 4.0 C 83 % 1015.1 hPa 0.0 l/m 0.1 km/h (0 Bft) N 1.4 C 4.0 C
06.03.2003 11:00 5.2 C 77 % 1015.2 hPa 0.0 l/m 0.4 km/h (0 Bft) W-NW 1.4 C 5.2 C
06.03.2003 12:00 7.1 C 69 % 1015.2 hPa 0.0 l/m 0.3 km/h (0 Bft) N 1.8 C 7.1 C
06.03.2003 13:00 8.1 C 65 % 1014.8 hPa 0.0 l/m 0.5 km/h (0 Bft) O-SO 2.0 C 8.1 C
06.03.2003 14:00 8.7 C 67 % 1014.8 hPa 0.0 l/m 6.3 km/h (2 Bft) W-NW 2.8 C 7.9 C
06.03.2003 15:00 9.1 C 69 % 1015.2 hPa 0.0 l/m 13.6 km/h (3 Bft) W-NW 3.6 C 7.2 C
06.03.2003 16:00 8.3 C 81 % 1015.8 hPa 0.0 l/m 22.0 km/h (4 Bft) W-NW 5.3 C 5.1 C
06.03.2003 17:00 7.1 C 89 % 1016.7 hPa 0.3 l/m 28.9 km/h (5 Bft) W-NW 5.3 C 2.9 C
06.03.2003 18:00 6.5 C 90 % 1018.3 hPa 0.0 l/m 16.6 km/h (3 Bft) W-NW 5.0 C 3.4 C
06.03.2003 19:00 6.1 C 85 % 1020.1 hPa 0.0 l/m 15.6 km/h (3 Bft) W-NW 3.8 C 3.1 C
06.03.2003 20:00 5.7 C 82 % 1021.2 hPa 0.0 l/m 14.3 km/h (3 Bft) W-NW 3.0 C 2.9 C
06.03.2003 21:00 5.1 C 83 % 1022.5 hPa 0.0 l/m 15.2 km/h (3 Bft) W-NW 2.4 C 1.9 C
06.03.2003 22:00 4.8 C 82 % 1023.4 hPa 0.0 l/m 10.1 km/h (2 Bft) W-NW 1.9 C 2.6 C
06.03.2003 23:00 4.7 C 80 % 1024.1 hPa 0.0 l/m 2.1 km/h (1 Bft) N 1.5 C 4.3 C
07.03.2003 00:00 4.4 C 79 % 1024.7 hPa 0.0 l/m 0.9 km/h (0 Bft) NW 1.1 C 4.2 C
07.03.2003 01:00 3.4 C 83 % 1025.2 hPa 0.0 l/m 0.0 km/h (0 Bft) N 0.8 C 3.4 C
07.03.2003 02:00 2.8 C 85 % 1025.2 hPa 0.0 l/m 0.4 km/h (0 Bft) O 0.5 C 2.8 C
07.03.2003 03:00 1.1 C 91 % 1025.2 hPa 0.0 l/m 2.9 km/h (1 Bft) O -0.2 C 0.4 C
07.03.2003 04:00 0.1 C 95 % 1024.5 hPa 0.0 l/m 7.5 km/h (2 Bft) O-SO -0.6 C -2.4 C
07.03.2003 05:00 -0.8 C 95 % 1024.1 hPa 0.0 l/m 0.7 km/h (0 Bft) N -1.5 C -1.0 C
07.03.2003 06:00 -1.8 C 95 % 1024.7 hPa 0.0 l/m 0.5 km/h (0 Bft) O-SO -2.6 C -2.0 C
07.03.2003 07:00 -1.9 C 95 % 1025.2 hPa 0.0 l/m 0.1 km/h (0 Bft) N -2.5 C -1.9 C
07.03.2003 08:00 -0.6 C 99 % 1025.2 hPa 0.0 l/m 0.0 km/h (0 Bft) N -0.8 C -0.6 C
07.03.2003 09:00 0.9 C 98 % 1025.2 hPa 0.0 l/m 0.1 km/h (0 Bft) N 0.6 C 0.9 C
07.03.2003 10:00 4.4 C 74 % 1024.7 hPa 0.0 l/m 6.0 km/h (2 Bft) O-SO -0.0 C 3.1 C
07.03.2003 11:00 7.8 C 51 % 1024.1 hPa 0.0 l/m 15.3 km/h (3 Bft) O-SO -1.7 C 5.5 C
07.03.2003 12:00 9.1 C 49 % 1024.1 hPa 0.0 l/m 11.2 km/h (2 Bft) O-SO -0.9 C 7.4 C
07.03.2003 13:00 10.1 C 46 % 1023.2 hPa 0.0 l/m 15.5 km/h (3 Bft) SO -1.0 C 9.4 C
07.03.2003 14:00 10.5 C 48 % 1022.2 hPa 0.0 l/m 22.3 km/h (4 Bft) SO 0.1 C 10.5 C
07.03.2003 15:00 10.4 C 48 % 1022.1 hPa 0.0 l/m 16.7 km/h (3 Bft) O-SO -0.2 C 10.4 C
07.03.2003 16:00 9.6 C 47 % 1022.1 hPa 0.0 l/m 12.9 km/h (3 Bft) O-SO -1.0 C 8.0 C
07.03.2003 17:00 8.1 C 49 % 1022.1 hPa 0.0 l/m 4.8 km/h (1 Bft) O-SO -2.0 C 7.4 C
07.03.2003 18:00 6.1 C 56 % 1022.1 hPa 0.0 l/m 3.4 km/h (1 Bft) SO -2.1 C 5.4 C
07.03.2003 19:00 4.3 C 68 % 1022.1 hPa 0.0 l/m 3.0 km/h (1 Bft) O-SO -1.2 C 3.6 C
07.03.2003 20:00 2.7 C 78 % 1022.1 hPa 0.0 l/m 1.9 km/h (1 Bft) O-SO -0.7 C 2.3 C
07.03.2003 21:00 1.8 C 85 % 1022.1 hPa 0.0 l/m 3.2 km/h (1 Bft) O-SO -0.5 C 0.9 C
07.03.2003 22:00 1.3 C 89 % 1022.1 hPa 0.0 l/m 0.8 km/h (0 Bft) O-SO -0.4 C 1.1 C
07.03.2003 23:00 0.7 C 90 % 1023.0 hPa 0.0 l/m 3.1 km/h (1 Bft) O-SO -0.8 C -0.2 C
08.03.2003 00:00 -0.1 C 92 % 1023.9 hPa 0.0 l/m 3.2 km/h (1 Bft) O-SO -1.2 C -0.8 C
08.03.2003 01:00 -1.0 C 92 % 1024.8 hPa 0.0 l/m 2.5 km/h (1 Bft) O-SO -2.1 C -1.6 C
08.03.2003 02:00 -0.4 C 95 % 1024.8 hPa 0.0 l/m 8.1 km/h (2 Bft) O-SO -1.1 C -3.2 C
08.03.2003 03:00 -1.0 C 95 % 1024.8 hPa 0.0 l/m 3.0 km/h (1 Bft) SO -1.6 C -2.0 C
08.03.2003 04:00 -1.1 C 95 % 1025.7 hPa 0.0 l/m 0.0 km/h (0 Bft) N -1.8 C -1.1 C
08.03.2003 05:00 -0.0 C 96 % 1025.9 hPa 0.0 l/m 0.9 km/h (0 Bft) O-SO -0.5 C -0.3 C
08.03.2003 06:00 0.5 C 96 % 1026.0 hPa 0.0 l/m 1.0 km/h (0 Bft) O-SO -0.1 C 0.3 C
08.03.2003 07:00 1.2 C 95 % 1026.9 hPa 0.0 l/m 0.3 km/h (0 Bft) O-SO 0.5 C 1.2 C
08.03.2003 08:00 2.5 C 92 % 1026.9 hPa 0.0 l/m 4.0 km/h (1 Bft) O-SO 1.3 C 1.7 C
08.03.2003 09:00 3.1 C 85 % 1028.0 hPa 0.0 l/m 4.6 km/h (1 Bft) SO 0.8 C 2.3 C
08.03.2003 10:00 5.2 C 75 % 1028.0 hPa 0.0 l/m 3.3 km/h (1 Bft) W-NW 1.1 C 4.6 C
08.03.2003 11:00 7.2 C 63 % 1028.0 hPa 0.0 l/m 19.1 km/h (3 Bft) W-NW 0.6 C 4.0 C
08.03.2003 12:00 8.5 C 58 % 1028.0 hPa 0.0 l/m 8.3 km/h (2 Bft) SO 0.7 C 7.3 C
08.03.2003 13:00 9.2 C 55 % 1026.9 hPa 0.0 l/m 4.9 km/h (1 Bft) SO 0.5 C 8.5 C
08.03.2003 14:00 9.7 C 49 % 1026.0 hPa 0.0 l/m 12.0 km/h (2 Bft) W-NW -0.4 C 8.3 C
08.03.2003 15:00 10.5 C 46 % 1025.9 hPa 0.0 l/m 17.1 km/h (3 Bft) W-NW -0.6 C 9.4 C
08.03.2003 16:00 11.0 C 47 % 1025.9 hPa 0.0 l/m 17.2 km/h (3 Bft) NW 0.0 C 11.0 C
08.03.2003 17:00 9.0 C 51 % 1026.3 hPa 0.0 l/m 18.8 km/h (3 Bft) W-NW -0.6 C 6.4 C
08.03.2003 18:00 7.0 C 55 % 1026.9 hPa 0.0 l/m 9.1 km/h (2 Bft) NW -1.3 C 5.4 C
08.03.2003 19:00 4.7 C 63 % 1027.5 hPa 0.0 l/m 5.5 km/h (1 Bft) O-SO -1.8 C 3.4 C
08.03.2003 20:00 2.8 C 73 % 1026.9 hPa 0.0 l/m 5.7 km/h (1 Bft) O-SO -1.6 C 1.3 C
08.03.2003 21:00 1.5 C 84 % 1027.0 hPa 0.0 l/m 2.6 km/h (1 Bft) O-SO -1.0 C 0.7 C
08.03.2003 22:00 0.8 C 87 % 1027.4 hPa 0.0 l/m 1.5 km/h (1 Bft) O-SO -1.1 C 0.6 C
08.03.2003 23:00 0.1 C 87 % 1027.3 hPa 0.0 l/m 0.0 km/h (0 Bft) N -1.8 C 0.1 C
09.03.2003 00:00 0.2 C 90 % 1028.0 hPa 0.0 l/m 0.4 km/h (0 Bft) O-SO -1.3 C 0.2 C
09.03.2003 01:00 0.2 C 90 % 1028.0 hPa 0.0 l/m 0.0 km/h (0 Bft) N -1.2 C 0.2 C
09.03.2003 02:00 0.5 C 91 % 1028.0 hPa 0.0 l/m 1.4 km/h (1 Bft) O-SO -0.8 C 0.3 C
09.03.2003 03:00 0.3 C 92 % 1028.0 hPa 0.0 l/m 0.6 km/h (0 Bft) O-SO -0.9 C 0.3 C
09.03.2003 04:00 0.7 C 92 % 1028.0 hPa 0.0 l/m 3.9 km/h (1 Bft) O-SO -0.5 C -0.4 C
09.03.2003 05:00 0.7 C 91 % 1028.0 hPa 0.0 l/m 0.0 km/h (0 Bft) N -0.6 C 0.7 C
09.03.2003 06:00 0.2 C 93 % 1028.0 hPa 0.0 l/m 1.5 km/h (1 Bft) O-SO -0.8 C -0.2 C
09.03.2003 07:00 0.9 C 92 % 1028.0 hPa 0.0 l/m 2.9 km/h (1 Bft) O-SO -0.3 C 0.2 C
09.03.2003 08:00 2.5 C 85 % 1028.0 hPa 0.0 l/m 6.4 km/h (2 Bft) SO 0.2 C 0.8 C
09.03.2003 09:00 5.1 C 70 % 1028.0 hPa 0.0 l/m 1.9 km/h (1 Bft) W-NW 0.1 C 4.8 C
09.03.2003 10:00 7.2 C 60 % 1028.0 hPa 0.0 l/m 3.7 km/h (1 Bft) O-SO -0.1 C 6.6 C
09.03.2003 11:00 9.5 C 50 % 1028.0 hPa 0.0 l/m 4.7 km/h (1 Bft) SO -0.3 C 9.2 C
09.03.2003 12:00 11.9 C 44 % 1027.4 hPa 0.0 l/m 7.2 km/h (2 Bft) SO 0.0 C 11.9 C
09.03.2003 13:00 13.5 C 38 % 1026.9 hPa 0.0 l/m 1.6 km/h (1 Bft) SW -0.4 C 13.5 C
09.03.2003 14:00 14.5 C 37 % 1026.1 hPa 0.0 l/m 1.4 km/h (1 Bft) W-NW -0.1 C 14.5 C
09.03.2003 15:00 16.0 C 33 % 1025.9 hPa 0.0 l/m 3.7 km/h (1 Bft) W-NW -0.4 C 16.0 C
09.03.2003 16:00 16.7 C 31 % 1025.9 hPa 0.0 l/m 3.3 km/h (1 Bft) W-NW -0.7 C 16.7 C
09.03.2003 17:00 15.6 C 33 % 1025.9 hPa 0.0 l/m 6.3 km/h (2 Bft) W-NW -0.5 C 15.6 C
09.03.2003 18:00 13.2 C 39 % 1026.6 hPa 0.0 l/m 1.8 km/h (1 Bft) W-NW -0.6 C 13.2 C
09.03.2003 19:00 9.9 C 51 % 1026.9 hPa 0.0 l/m 3.2 km/h (1 Bft) O-SO 0.2 C 9.8 C
09.03.2003 20:00 7.8 C 61 % 1027.6 hPa 0.0 l/m 3.6 km/h (1 Bft) O-SO 0.6 C 7.4 C
09.03.2003 21:00 5.8 C 72 % 1028.0 hPa 0.0 l/m 2.6 km/h (1 Bft) O-SO 1.2 C 5.5 C
09.03.2003 22:00 4.4 C 79 % 1028.8 hPa 0.0 l/m 4.0 km/h (1 Bft) O-SO 1.1 C 3.6 C
09.03.2003 23:00 2.8 C 84 % 1029.0 hPa 0.0 l/m 0.9 km/h (0 Bft) O 0.3 C 2.6 C
Min-Datum _ 07.03.03 09.03.03 06.03.03 - 03.03.03 - 09.03.03 08.03.03
_ Min-Zeit 06:36 15:50 04:06 - 06:38 - 15:53 03:36
Minimum _ -2.3 C 26 % 1014.8 hPa - 0.0 km/h (0 Bft) - -3.4 C -4.6 C
Max-Datum _ 09.03.03 04.03.03 09.03.03 03.03.03 03.03.03 - 06.03.03 09.03.03
_ Max-Zeit 16:11 02:26 22:08 06:29 00:56 - 16:24 16:11
Maximum _ 17.0 C 100 % 1029.0 hPa 0.3 l/m 42.2 km/h
W (6 Bft)
- 5.8 C 17.0 C
Durchschnitt _ 4.5 C 77 % 1022.8 hPa #2.4 l/m 4.9 km/h (1 Bft) O-SO 0.3 C 3.8 C

Durchschnitt Minimum Temp.3.8 C
Durchschnitt Maximum Temp.5.3 C
© Kaiko 2003